createdAt,value
2023-04-15T00:02:01.100Z,69.51
2023-04-15T00:07:03.958Z,69.60
2023-04-15T00:12:07.007Z,69.65
2023-04-15T00:17:09.608Z,69.71
2023-04-15T00:22:13.254Z,69.78
2023-04-15T00:27:16.321Z,69.82
2023-04-15T00:32:18.916Z,69.90
2023-04-15T00:37:21.589Z,69.92
2023-04-15T00:42:25.521Z,69.93
2023-04-15T00:47:29.951Z,69.97
2023-04-15T00:52:32.694Z,70.01
2023-04-15T00:57:36.773Z,70.06
2023-04-15T01:02:39.672Z,70.08
2023-04-15T01:07:42.793Z,70.14
2023-04-15T01:12:45.467Z,70.21
2023-04-15T01:17:48.961Z,70.27
2023-04-15T01:22:52.784Z,70.31
2023-04-15T01:27:55.846Z,70.38
2023-04-15T01:32:58.552Z,70.43
2023-04-15T01:38:07.438Z,70.44
2023-04-15T01:43:10.083Z,70.53
2023-04-15T01:48:12.698Z,70.60
2023-04-15T01:53:16.014Z,70.60
2023-04-15T01:58:19.430Z,70.63
2023-04-15T02:03:22.425Z,70.76
2023-04-15T02:08:25.327Z,70.82
2023-04-15T02:13:27.949Z,70.82
2023-04-15T02:18:30.640Z,70.88
2023-04-15T02:23:33.315Z,70.91
2023-04-15T02:28:36.244Z,71.00
2023-04-15T02:33:39.010Z,70.96
2023-04-15T02:38:43.091Z,70.99
2023-04-15T02:43:45.662Z,71.02
2023-04-15T02:48:49.981Z,71.08
2023-04-15T02:53:52.583Z,71.06
2023-04-15T02:58:56.791Z,71.06
2023-04-15T03:03:59.454Z,71.04
2023-04-15T03:09:02.496Z,71.06
2023-04-15T03:14:05.424Z,71.01
2023-04-15T03:19:07.990Z,71.00
2023-04-15T03:24:10.703Z,71.01
2023-04-15T03:29:13.307Z,70.93
2023-04-15T03:34:15.982Z,70.91
2023-04-15T03:39:18.535Z,70.88
2023-04-15T03:44:21.420Z,70.85
2023-04-15T03:49:24.628Z,70.74
2023-04-15T03:54:27.334Z,70.64
2023-04-15T03:59:29.948Z,70.61
2023-04-15T04:04:32.636Z,70.65
2023-04-15T04:09:35.409Z,70.67
2023-04-15T04:14:38.046Z,70.71
2023-04-15T04:19:40.980Z,70.74
2023-04-15T04:24:43.582Z,70.81
2023-04-15T04:29:47.831Z,70.81
2023-04-15T04:34:50.673Z,70.79
2023-04-15T04:39:53.252Z,70.68
2023-04-15T04:44:55.800Z,70.36
2023-04-15T04:49:58.384Z,70.13
2023-04-15T04:55:01.184Z,70.07
2023-04-15T05:00:05.014Z,69.99
2023-04-15T05:05:08.614Z,69.99
2023-04-15T05:10:11.416Z,69.97
2023-04-15T05:15:14.037Z,69.94
2023-04-15T05:20:17.168Z,69.79
2023-04-15T05:25:19.835Z,69.63
2023-04-15T05:30:22.589Z,69.61
2023-04-15T05:35:25.679Z,69.71
2023-04-15T05:40:28.501Z,69.65
2023-04-15T05:45:31.107Z,69.69
2023-04-15T05:50:33.696Z,69.73
2023-04-15T05:55:36.523Z,69.71
2023-04-15T06:00:39.330Z,69.78
2023-04-15T06:05:42.552Z,69.72
2023-04-15T06:10:46.062Z,69.70
2023-04-15T06:15:49.605Z,69.77
2023-04-15T06:20:52.217Z,69.56
2023-04-15T06:25:54.782Z,69.36
2023-04-15T06:30:57.367Z,69.04
2023-04-15T06:35:59.967Z,69.08
2023-04-15T06:41:04.599Z,68.84
2023-04-15T06:46:07.278Z,68.55
2023-04-15T06:51:09.993Z,68.24
2023-04-15T06:56:12.775Z,68.20
2023-04-15T07:01:15.425Z,67.96
2023-04-15T07:06:18.350Z,67.83
2023-04-15T07:11:21.299Z,67.80
2023-04-15T07:16:24.242Z,67.71
2023-04-15T07:21:27.736Z,67.58
2023-04-15T07:26:30.573Z,67.61
2023-04-15T07:31:33.344Z,67.51
2023-04-15T07:36:36.856Z,67.53
2023-04-15T07:41:39.497Z,67.56
2023-04-15T07:46:42.164Z,67.56
2023-04-15T07:51:45.430Z,67.47
2023-04-15T07:56:48.048Z,67.49
2023-04-15T08:01:50.830Z,67.49
2023-04-15T08:06:53.470Z,67.59
2023-04-15T08:11:57.136Z,67.60
2023-04-15T08:16:59.708Z,67.60
2023-04-15T08:22:02.727Z,67.59
2023-04-15T08:27:05.902Z,67.56
2023-04-15T08:32:09.604Z,67.51
2023-04-15T08:37:12.712Z,67.50
2023-04-15T08:42:31.335Z,67.43
2023-04-15T08:47:37.424Z,67.28
2023-04-15T08:52:40.339Z,67.22
2023-04-15T08:57:43.307Z,67.20
2023-04-15T09:02:46.841Z,67.29
2023-04-15T09:07:51.425Z,67.29
2023-04-15T09:12:55.103Z,67.25
2023-04-15T09:17:57.779Z,67.36
2023-04-15T09:23:00.698Z,67.42
2023-04-15T09:28:04.100Z,67.42
2023-04-15T09:33:08.620Z,67.31
2023-04-15T09:38:12.740Z,67.27
2023-04-15T09:43:17.464Z,67.36
2023-04-15T09:48:27.122Z,67.37
2023-04-15T09:53:32.903Z,67.50
2023-04-15T09:58:38.831Z,67.57
2023-04-15T10:03:43.248Z,67.62
2023-04-15T10:08:47.169Z,67.69
2023-04-15T10:13:51.546Z,67.79
2023-04-15T10:18:56.837Z,67.92
2023-04-15T10:24:03.216Z,68.17
2023-04-15T10:29:06.733Z,68.28
2023-04-15T10:34:11.207Z,68.41
2023-04-15T10:39:34.158Z,68.54
2023-04-15T10:44:53.901Z,68.58
2023-04-15T10:50:02.471Z,68.62
2023-04-15T10:55:21.362Z,68.85
2023-04-15T11:00:32.036Z,69.04
2023-04-15T11:05:53.058Z,69.28
2023-04-15T11:10:55.728Z,69.40
2023-04-15T11:16:01.514Z,69.62
2023-04-15T11:21:07.795Z,69.81
2023-04-15T11:26:14.793Z,69.92
2023-04-15T11:31:20.259Z,70.03
2023-04-15T11:36:28.579Z,70.05
2023-04-15T11:41:31.383Z,70.06
2023-04-15T11:46:34.101Z,70.05
2023-04-15T11:51:37.042Z,70.11
2023-04-15T11:56:39.729Z,70.36
2023-04-15T12:01:44.085Z,70.64
2023-04-15T12:06:46.807Z,71.04
2023-04-15T12:11:57.383Z,71.46
2023-04-15T12:17:05.209Z,72.07
2023-04-15T12:22:13.930Z,72.46
2023-04-15T12:27:17.700Z,73.07
2023-04-15T12:32:21.490Z,73.69
2023-04-15T12:37:24.281Z,74.07
2023-04-15T12:42:27.578Z,74.26
2023-04-15T12:47:30.481Z,74.41
2023-04-15T12:52:33.523Z,74.53
2023-04-15T12:57:36.378Z,74.72
2023-04-15T13:02:39.141Z,74.88
2023-04-15T13:07:42.778Z,75.13
2023-04-15T13:12:46.957Z,75.22
2023-04-15T13:17:50.062Z,75.25
2023-04-15T13:22:54.127Z,75.23
2023-04-15T13:27:57.709Z,75.22
2023-04-15T13:33:00.687Z,75.21
2023-04-15T13:38:03.705Z,75.04
2023-04-15T13:43:06.421Z,74.72
2023-04-15T13:48:09.204Z,74.59
2023-04-15T13:53:13.036Z,74.46
2023-04-15T13:58:16.318Z,74.83
2023-04-15T14:03:19.013Z,75.14
2023-04-15T14:08:23.117Z,75.39
2023-04-15T14:13:25.940Z,75.68
2023-04-15T14:18:29.962Z,75.76
2023-04-15T14:23:32.680Z,76.03
2023-04-15T14:28:35.677Z,76.13
2023-04-15T14:33:38.225Z,76.26
2023-04-15T14:38:41.222Z,76.39
2023-04-15T14:43:43.782Z,76.49
2023-04-15T14:48:46.732Z,76.74
2023-04-15T14:53:49.290Z,76.80
2023-04-15T14:58:53.207Z,76.88
2023-04-15T15:03:55.910Z,77.01
2023-04-15T15:08:58.622Z,76.93
2023-04-15T15:14:01.447Z,77.04
2023-04-15T15:19:05.308Z,77.32
2023-04-15T15:24:08.062Z,77.72
2023-04-15T15:29:10.611Z,78.01
2023-04-15T15:34:13.196Z,78.22
2023-04-15T15:39:16.286Z,78.29
2023-04-15T15:44:18.850Z,78.35
2023-04-15T15:49:21.561Z,78.43
2023-04-15T15:54:25.315Z,78.61
2023-04-15T15:59:27.964Z,78.78
2023-04-15T16:04:31.109Z,78.90
2023-04-15T16:09:33.885Z,79.00
2023-04-15T16:14:36.637Z,79.03
2023-04-15T16:19:39.513Z,79.31
2023-04-15T16:24:42.121Z,79.41
2023-04-15T16:29:44.768Z,79.43
2023-04-15T16:34:47.451Z,79.39
2023-04-15T16:39:50.096Z,79.49
2023-04-15T16:44:52.875Z,79.50
2023-04-15T16:49:55.479Z,79.52
2023-04-15T16:54:58.220Z,79.61
2023-04-15T17:00:00.896Z,79.69
2023-04-15T17:05:05.367Z,79.75
2023-04-15T17:10:08.871Z,80.03
2023-04-15T17:15:11.544Z,80.17
2023-04-15T17:20:14.813Z,80.24
2023-04-15T17:25:17.804Z,80.29
2023-04-15T17:30:20.960Z,80.31
2023-04-15T17:35:25.638Z,80.44
2023-04-15T17:40:28.490Z,80.67
2023-04-15T17:45:31.496Z,80.79
2023-04-15T17:50:34.345Z,80.93
2023-04-15T17:55:36.982Z,81.15
2023-04-15T18:00:39.969Z,81.20
2023-04-15T18:05:42.972Z,81.18
2023-04-15T18:10:45.731Z,81.29
2023-04-15T18:15:49.485Z,81.39
2023-04-15T18:20:52.592Z,81.64
2023-04-15T18:25:57.378Z,81.68
2023-04-15T18:31:01.585Z,81.68
2023-04-15T18:36:04.701Z,81.69
2023-04-15T18:41:09.490Z,81.61
2023-04-15T18:46:13.971Z,81.64
2023-04-15T18:51:17.389Z,81.61
2023-04-15T18:56:21.098Z,81.71
2023-04-15T19:01:24.168Z,81.82
2023-04-15T19:06:27.230Z,81.86
2023-04-15T19:11:30.064Z,81.95
2023-04-15T19:16:32.751Z,82.04
2023-04-15T19:21:35.951Z,82.12
2023-04-15T19:26:38.739Z,82.12
2023-04-15T19:31:41.863Z,82.23
2023-04-15T19:36:44.468Z,82.25
2023-04-15T19:41:47.246Z,82.36
2023-04-15T19:46:52.697Z,82.44
2023-04-15T19:51:55.939Z,82.37
2023-04-15T19:56:59.202Z,82.37
2023-04-15T20:02:02.461Z,82.44
2023-04-15T20:07:05.641Z,82.40
2023-04-15T20:12:50.349Z,82.54
2023-04-15T20:17:33.925Z,82.49
2023-04-15T20:22:36.574Z,82.57
2023-04-15T20:27:39.435Z,82.57
2023-04-15T20:32:42.238Z,82.64
2023-04-15T20:37:45.077Z,82.67
2023-04-15T20:42:47.717Z,82.71
2023-04-15T20:47:50.302Z,82.71
2023-04-15T20:52:52.880Z,82.74
2023-04-15T20:57:57.004Z,82.72
2023-04-15T21:02:59.696Z,82.72
2023-04-15T21:08:02.523Z,82.71
2023-04-15T21:13:06.880Z,82.75
2023-04-15T21:18:09.461Z,82.74
2023-04-15T21:23:13.086Z,82.77
2023-04-15T21:28:15.909Z,82.74
2023-04-15T21:33:20.387Z,82.79
2023-04-15T21:38:23.573Z,82.81
2023-04-15T21:43:26.864Z,82.76
2023-04-15T21:48:29.537Z,82.80
2023-04-15T21:53:34.968Z,82.82
2023-04-15T21:58:37.611Z,82.85
2023-04-15T22:03:40.545Z,82.86
2023-04-15T22:08:54.890Z,82.89
2023-04-15T22:13:59.932Z,82.90
2023-04-15T22:19:02.966Z,82.97
2023-04-15T22:24:38.537Z,82.99
2023-04-15T22:29:29.989Z,82.93
2023-04-15T22:34:32.730Z,82.94
2023-04-15T22:39:35.463Z,82.96
2023-04-15T22:44:38.030Z,82.91
2023-04-15T22:49:41.785Z,83.00
2023-04-15T22:54:44.373Z,83.01
2023-04-15T22:59:46.988Z,83.03
2023-04-15T23:04:49.669Z,83.04
2023-04-15T23:09:52.404Z,83.10
2023-04-15T23:14:55.026Z,83.14
2023-04-15T23:19:57.558Z,83.24
2023-04-15T23:25:00.154Z,83.21
2023-04-15T23:30:04.065Z,83.28
2023-04-15T23:35:07.028Z,83.31
2023-04-15T23:40:10.969Z,83.35
2023-04-15T23:45:13.594Z,83.40
2023-04-15T23:50:16.318Z,83.43
2023-04-15T23:55:18.923Z,83.39
